sensor_id;sensor_type;location;lat;lon;timestamp;P1;durP1;ratioP1;P2;durP2;ratioP2
15114;SDS011;7658;51.456;7.622;2023-03-24T00:01:10;4.90;;;4.05;;
15114;SDS011;7658;51.456;7.622;2023-03-24T00:03:36;4.38;;;3.97;;
15114;SDS011;7658;51.456;7.622;2023-03-24T00:06:02;6.32;;;4.07;;
15114;SDS011;7658;51.456;7.622;2023-03-24T00:08:30;5.47;;;3.95;;
15114;SDS011;7658;51.456;7.622;2023-03-24T00:11:02;8.25;;;4.18;;
15114;SDS011;7658;51.456;7.622;2023-03-24T00:13:33;7.13;;;3.88;;
15114;SDS011;7658;51.456;7.622;2023-03-24T00:16:04;4.15;;;3.50;;
15114;SDS011;7658;51.456;7.622;2023-03-24T00:18:32;5.15;;;4.10;;
15114;SDS011;7658;51.456;7.622;2023-03-24T00:20:58;7.22;;;4.28;;
15114;SDS011;7658;51.456;7.622;2023-03-24T00:23:27;4.82;;;3.72;;
15114;SDS011;7658;51.456;7.622;2023-03-24T00:28:32;5.60;;;3.58;;
15114;SDS011;7658;51.456;7.622;2023-03-24T00:31:01;3.97;;;3.63;;
15114;SDS011;7658;51.456;7.622;2023-03-24T00:33:29;4.70;;;3.67;;
15114;SDS011;7658;51.456;7.622;2023-03-24T00:35:57;4.45;;;3.80;;
15114;SDS011;7658;51.456;7.622;2023-03-24T00:38:24;4.55;;;3.70;;
15114;SDS011;7658;51.456;7.622;2023-03-24T00:40:50;5.03;;;3.70;;
15114;SDS011;7658;51.456;7.622;2023-03-24T00:43:17;4.35;;;3.95;;
15114;SDS011;7658;51.456;7.622;2023-03-24T00:45:44;4.85;;;3.40;;
15114;SDS011;7658;51.456;7.622;2023-03-24T00:48:14;3.92;;;3.63;;
15114;SDS011;7658;51.456;7.622;2023-03-24T00:50:48;3.80;;;3.50;;
15114;SDS011;7658;51.456;7.622;2023-03-24T00:53:15;6.00;;;3.65;;
15114;SDS011;7658;51.456;7.622;2023-03-24T00:55:42;6.00;;;3.80;;
15114;SDS011;7658;51.456;7.622;2023-03-24T00:58:10;4.20;;;3.80;;
15114;SDS011;7658;51.456;7.622;2023-03-24T01:00:42;4.70;;;3.78;;
15114;SDS011;7658;51.456;7.622;2023-03-24T01:03:09;3.65;;;3.30;;
15114;SDS011;7658;51.456;7.622;2023-03-24T01:05:35;5.35;;;3.58;;
15114;SDS011;7658;51.456;7.622;2023-03-24T01:08:01;4.10;;;3.70;;
15114;SDS011;7658;51.456;7.622;2023-03-24T01:10:29;4.05;;;3.70;;
15114;SDS011;7658;51.456;7.622;2023-03-24T01:12:58;4.43;;;4.00;;
15114;SDS011;7658;51.456;7.622;2023-03-24T01:15:26;4.35;;;3.92;;
15114;SDS011;7658;51.456;7.622;2023-03-24T01:17:53;3.72;;;3.42;;
15114;SDS011;7658;51.456;7.622;2023-03-24T01:20:20;3.88;;;3.53;;
15114;SDS011;7658;51.456;7.622;2023-03-24T01:22:47;4.15;;;3.67;;
15114;SDS011;7658;51.456;7.622;2023-03-24T01:25:15;5.68;;;3.65;;
15114;SDS011;7658;51.456;7.622;2023-03-24T01:27:44;5.97;;;4.20;;
15114;SDS011;7658;51.456;7.622;2023-03-24T01:30:12;4.30;;;3.70;;
15114;SDS011;7658;51.456;7.622;2023-03-24T01:32:39;3.70;;;3.40;;
15114;SDS011;7658;51.456;7.622;2023-03-24T01:35:06;4.45;;;4.03;;
15114;SDS011;7658;51.456;7.622;2023-03-24T01:37:32;4.25;;;3.85;;
15114;SDS011;7658;51.456;7.622;2023-03-24T01:39:58;5.15;;;4.05;;
15114;SDS011;7658;51.456;7.622;2023-03-24T01:42:24;5.53;;;4.57;;
15114;SDS011;7658;51.456;7.622;2023-03-24T01:44:53;4.40;;;4.00;;
15114;SDS011;7658;51.456;7.622;2023-03-24T01:47:23;5.75;;;4.18;;
15114;SDS011;7658;51.456;7.622;2023-03-24T01:49:55;4.22;;;3.80;;
15114;SDS011;7658;51.456;7.622;2023-03-24T01:52:34;8.73;;;4.40;;
15114;SDS011;7658;51.456;7.622;2023-03-24T01:55:02;6.05;;;4.03;;
15114;SDS011;7658;51.456;7.622;2023-03-24T01:57:43;4.45;;;4.00;;
15114;SDS011;7658;51.456;7.622;2023-03-24T02:00:14;6.43;;;4.03;;
15114;SDS011;7658;51.456;7.622;2023-03-24T02:02:46;6.93;;;4.30;;
15114;SDS011;7658;51.456;7.622;2023-03-24T02:05:18;4.15;;;3.80;;
15114;SDS011;7658;51.456;7.622;2023-03-24T02:10:33;5.13;;;3.90;;
15114;SDS011;7658;51.456;7.622;2023-03-24T02:13:00;5.43;;;4.35;;
15114;SDS011;7658;51.456;7.622;2023-03-24T02:15:28;4.97;;;4.03;;
15114;SDS011;7658;51.456;7.622;2023-03-24T02:18:01;4.95;;;3.90;;
15114;SDS011;7658;51.456;7.622;2023-03-24T02:29:43;5.82;;;4.18;;
15114;SDS011;7658;51.456;7.622;2023-03-24T02:41:07;4.85;;;4.20;;
15114;SDS011;7658;51.456;7.622;2023-03-24T02:44:09;4.53;;;4.13;;
15114;SDS011;7658;51.456;7.622;2023-03-24T02:46:48;6.70;;;4.88;;
15114;SDS011;7658;51.456;7.622;2023-03-24T02:52:15;6.00;;;4.65;;
15114;SDS011;7658;51.456;7.622;2023-03-24T02:54:49;5.28;;;4.78;;
15114;SDS011;7658;51.456;7.622;2023-03-24T03:00:11;5.95;;;5.10;;
15114;SDS011;7658;51.456;7.622;2023-03-24T03:03:05;5.30;;;4.80;;
15114;SDS011;7658;51.456;7.622;2023-03-24T03:05:41;5.53;;;4.88;;
15114;SDS011;7658;51.456;7.622;2023-03-24T03:08:12;5.18;;;4.65;;
15114;SDS011;7658;51.456;7.622;2023-03-24T03:10:42;7.47;;;5.32;;
15114;SDS011;7658;51.456;7.622;2023-03-24T03:13:15;5.30;;;4.25;;
15114;SDS011;7658;51.456;7.622;2023-03-24T03:15:57;5.75;;;5.03;;
15114;SDS011;7658;51.456;7.622;2023-03-24T03:18:31;6.72;;;4.88;;
15114;SDS011;7658;51.456;7.622;2023-03-24T03:21:05;5.47;;;4.57;;
15114;SDS011;7658;51.456;7.622;2023-03-24T03:23:38;5.60;;;4.28;;
15114;SDS011;7658;51.456;7.622;2023-03-24T03:26:12;5.00;;;4.50;;
15114;SDS011;7658;51.456;7.622;2023-03-24T03:28:42;5.90;;;4.40;;
15114;SDS011;7658;51.456;7.622;2023-03-24T03:31:15;6.03;;;4.60;;
15114;SDS011;7658;51.456;7.622;2023-03-24T03:34:06;5.03;;;4.40;;
15114;SDS011;7658;51.456;7.622;2023-03-24T03:39:39;4.82;;;4.43;;
15114;SDS011;7658;51.456;7.622;2023-03-24T03:42:19;7.47;;;4.30;;
15114;SDS011;7658;51.456;7.622;2023-03-24T03:44:46;5.70;;;4.20;;
15114;SDS011;7658;51.456;7.622;2023-03-24T03:47:12;5.47;;;4.20;;
15114;SDS011;7658;51.456;7.622;2023-03-24T03:49:39;5.80;;;4.40;;
15114;SDS011;7658;51.456;7.622;2023-03-24T03:52:05;6.70;;;4.82;;
15114;SDS011;7658;51.456;7.622;2023-03-24T03:54:31;7.82;;;4.57;;
15114;SDS011;7658;51.456;7.622;2023-03-24T03:56:58;7.38;;;4.80;;
15114;SDS011;7658;51.456;7.622;2023-03-24T04:01:58;8.02;;;4.53;;
15114;SDS011;7658;51.456;7.622;2023-03-24T04:16:50;7.65;;;4.85;;
15114;SDS011;7658;51.456;7.622;2023-03-24T04:33:23;6.78;;;4.90;;
15114;SDS011;7658;51.456;7.622;2023-03-24T04:38:43;7.22;;;5.70;;
15114;SDS011;7658;51.456;7.622;2023-03-24T04:41:12;6.57;;;4.90;;
15114;SDS011;7658;51.456;7.622;2023-03-24T04:43:41;7.68;;;4.97;;
15114;SDS011;7658;51.456;7.622;2023-03-24T04:46:09;5.95;;;5.30;;
15114;SDS011;7658;51.456;7.622;2023-03-24T04:48:35;6.53;;;5.43;;
15114;SDS011;7658;51.456;7.622;2023-03-24T04:51:01;7.68;;;6.35;;
15114;SDS011;7658;51.456;7.622;2023-03-24T04:53:28;6.75;;;5.82;;
15114;SDS011;7658;51.456;7.622;2023-03-24T04:58:29;8.60;;;5.50;;
15114;SDS011;7658;51.456;7.622;2023-03-24T05:00:54;6.93;;;5.82;;
15114;SDS011;7658;51.456;7.622;2023-03-24T05:03:22;7.55;;;5.70;;
15114;SDS011;7658;51.456;7.622;2023-03-24T05:05:49;8.30;;;6.10;;
15114;SDS011;7658;51.456;7.622;2023-03-24T05:08:16;7.30;;;6.00;;
15114;SDS011;7658;51.456;7.622;2023-03-24T05:10:43;9.98;;;6.65;;
15114;SDS011;7658;51.456;7.622;2023-03-24T05:13:10;7.00;;;6.30;;
15114;SDS011;7658;51.456;7.622;2023-03-24T05:15:36;8.30;;;6.72;;
15114;SDS011;7658;51.456;7.622;2023-03-24T05:18:02;8.10;;;7.07;;
15114;SDS011;7658;51.456;7.622;2023-03-24T05:20:29;8.52;;;7.10;;
15114;SDS011;7658;51.456;7.622;2023-03-24T05:22:54;8.07;;;6.05;;
15114;SDS011;7658;51.456;7.622;2023-03-24T05:25:20;7.53;;;5.53;;
15114;SDS011;7658;51.456;7.622;2023-03-24T05:27:46;5.32;;;4.82;;
15114;SDS011;7658;51.456;7.622;2023-03-24T05:30:13;6.75;;;4.95;;
15114;SDS011;7658;51.456;7.622;2023-03-24T05:32:40;6.25;;;4.63;;
15114;SDS011;7658;51.456;7.622;2023-03-24T05:35:06;4.82;;;4.35;;
15114;SDS011;7658;51.456;7.622;2023-03-24T05:37:32;5.65;;;4.20;;
15114;SDS011;7658;51.456;7.622;2023-03-24T05:39:57;6.38;;;3.78;;
15114;SDS011;7658;51.456;7.622;2023-03-24T05:42:23;4.60;;;4.10;;
15114;SDS011;7658;51.456;7.622;2023-03-24T05:44:49;4.40;;;3.97;;
15114;SDS011;7658;51.456;7.622;2023-03-24T05:47:15;6.90;;;4.30;;
15114;SDS011;7658;51.456;7.622;2023-03-24T05:49:44;4.72;;;4.30;;
15114;SDS011;7658;51.456;7.622;2023-03-24T05:52:10;9.15;;;4.78;;
15114;SDS011;7658;51.456;7.622;2023-03-24T05:54:38;4.93;;;4.35;;
15114;SDS011;7658;51.456;7.622;2023-03-24T05:57:05;5.60;;;4.03;;
15114;SDS011;7658;51.456;7.622;2023-03-24T05:59:34;3.70;;;3.45;;
15114;SDS011;7658;51.456;7.622;2023-03-24T06:02:00;4.32;;;3.80;;
15114;SDS011;7658;51.456;7.622;2023-03-24T06:04:25;5.43;;;3.90;;
15114;SDS011;7658;51.456;7.622;2023-03-24T06:06:57;5.03;;;4.13;;
15114;SDS011;7658;51.456;7.622;2023-03-24T06:09:27;4.47;;;4.07;;
15114;SDS011;7658;51.456;7.622;2023-03-24T06:11:59;5.88;;;4.65;;
15114;SDS011;7658;51.456;7.622;2023-03-24T06:14:28;6.15;;;4.60;;
15114;SDS011;7658;51.456;7.622;2023-03-24T06:16:54;6.38;;;4.32;;
15114;SDS011;7658;51.456;7.622;2023-03-24T06:19:23;5.85;;;4.80;;
15114;SDS011;7658;51.456;7.622;2023-03-24T06:21:51;7.28;;;4.68;;
15114;SDS011;7658;51.456;7.622;2023-03-24T06:24:18;6.05;;;4.57;;
15114;SDS011;7658;51.456;7.622;2023-03-24T06:26:43;5.80;;;4.47;;
15114;SDS011;7658;51.456;7.622;2023-03-24T06:29:10;6.75;;;5.10;;
15114;SDS011;7658;51.456;7.622;2023-03-24T06:31:36;4.93;;;4.18;;
15114;SDS011;7658;51.456;7.622;2023-03-24T06:34:03;5.90;;;4.90;;
15114;SDS011;7658;51.456;7.622;2023-03-24T06:36:30;9.88;;;4.75;;
15114;SDS011;7658;51.456;7.622;2023-03-24T06:38:59;5.65;;;4.43;;
15114;SDS011;7658;51.456;7.622;2023-03-24T06:41:26;6.07;;;4.60;;
15114;SDS011;7658;51.456;7.622;2023-03-24T06:43:52;6.20;;;4.65;;
15114;SDS011;7658;51.456;7.622;2023-03-24T06:46:18;6.45;;;4.47;;
15114;SDS011;7658;51.456;7.622;2023-03-24T06:48:44;8.85;;;5.18;;
15114;SDS011;7658;51.456;7.622;2023-03-24T06:51:10;7.03;;;5.10;;
15114;SDS011;7658;51.456;7.622;2023-03-24T06:53:36;9.73;;;5.15;;
15114;SDS011;7658;51.456;7.622;2023-03-24T06:56:05;7.13;;;4.70;;
15114;SDS011;7658;51.456;7.622;2023-03-24T06:58:31;12.40;;;5.03;;
15114;SDS011;7658;51.456;7.622;2023-03-24T07:01:01;6.97;;;5.38;;
15114;SDS011;7658;51.456;7.622;2023-03-24T07:03:27;10.60;;;5.88;;
15114;SDS011;7658;51.456;7.622;2023-03-24T07:05:52;10.67;;;6.27;;
15114;SDS011;7658;51.456;7.622;2023-03-24T07:08:19;8.13;;;6.68;;
15114;SDS011;7658;51.456;7.622;2023-03-24T07:10:45;11.35;;;8.13;;
15114;SDS011;7658;51.456;7.622;2023-03-24T07:13:11;8.57;;;6.13;;
15114;SDS011;7658;51.456;7.622;2023-03-24T07:15:37;9.70;;;7.38;;
15114;SDS011;7658;51.456;7.622;2023-03-24T07:18:03;11.07;;;6.47;;
15114;SDS011;7658;51.456;7.622;2023-03-24T07:20:28;10.23;;;6.57;;
15114;SDS011;7658;51.456;7.622;2023-03-24T07:22:54;10.43;;;6.00;;
15114;SDS011;7658;51.456;7.622;2023-03-24T07:25:21;8.40;;;5.37;;
15114;SDS011;7658;51.456;7.622;2023-03-24T07:27:48;7.53;;;5.07;;
15114;SDS011;7658;51.456;7.622;2023-03-24T07:30:17;6.60;;;3.90;;
15114;SDS011;7658;51.456;7.622;2023-03-24T07:32:42;6.10;;;3.83;;
15114;SDS011;7658;51.456;7.622;2023-03-24T07:35:09;8.18;;;4.00;;
15114;SDS011;7658;51.456;7.622;2023-03-24T07:37:36;4.73;;;3.80;;
15114;SDS011;7658;51.456;7.622;2023-03-24T07:40:03;7.03;;;4.07;;
15114;SDS011;7658;51.456;7.622;2023-03-24T07:42:31;11.73;;;3.63;;
15114;SDS011;7658;51.456;7.622;2023-03-24T07:44:56;8.20;;;4.13;;
15114;SDS011;7658;51.456;7.622;2023-03-24T07:47:22;7.85;;;3.78;;
15114;SDS011;7658;51.456;7.622;2023-03-24T07:49:48;5.33;;;3.73;;
15114;SDS011;7658;51.456;7.622;2023-03-24T07:52:14;7.83;;;3.73;;
15114;SDS011;7658;51.456;7.622;2023-03-24T07:54:39;14.63;;;3.83;;
15114;SDS011;7658;51.456;7.622;2023-03-24T07:57:05;6.67;;;4.00;;
15114;SDS011;7658;51.456;7.622;2023-03-24T07:59:31;9.10;;;4.15;;
15114;SDS011;7658;51.456;7.622;2023-03-24T08:01:58;9.88;;;4.07;;
15114;SDS011;7658;51.456;7.622;2023-03-24T08:04:24;10.53;;;3.97;;
15114;SDS011;7658;51.456;7.622;2023-03-24T08:06:51;11.27;;;3.90;;
15114;SDS011;7658;51.456;7.622;2023-03-24T08:09:17;8.83;;;4.13;;
15114;SDS011;7658;51.456;7.622;2023-03-24T08:11:43;8.23;;;4.03;;
15114;SDS011;7658;51.456;7.622;2023-03-24T08:14:09;9.38;;;4.30;;
15114;SDS011;7658;51.456;7.622;2023-03-24T08:16:35;11.30;;;3.90;;
15114;SDS011;7658;51.456;7.622;2023-03-24T08:19:03;9.68;;;3.78;;
15114;SDS011;7658;51.456;7.622;2023-03-24T08:21:29;13.30;;;3.90;;
15114;SDS011;7658;51.456;7.622;2023-03-24T08:23:55;8.02;;;4.18;;
15114;SDS011;7658;51.456;7.622;2023-03-24T08:26:21;11.43;;;4.07;;
15114;SDS011;7658;51.456;7.622;2023-03-24T08:28:51;12.00;;;3.97;;
15114;SDS011;7658;51.456;7.622;2023-03-24T08:31:17;17.25;;;4.75;;
15114;SDS011;7658;51.456;7.622;2023-03-24T08:33:43;13.43;;;4.13;;
15114;SDS011;7658;51.456;7.622;2023-03-24T08:36:09;7.82;;;3.70;;
15114;SDS011;7658;51.456;7.622;2023-03-24T08:38:35;10.75;;;4.30;;
15114;SDS011;7658;51.456;7.622;2023-03-24T08:41:03;5.97;;;3.33;;
15114;SDS011;7658;51.456;7.622;2023-03-24T08:43:34;10.77;;;4.35;;
15114;SDS011;7658;51.456;7.622;2023-03-24T08:46:01;12.60;;;4.07;;
15114;SDS011;7658;51.456;7.622;2023-03-24T08:48:30;7.82;;;4.07;;
15114;SDS011;7658;51.456;7.622;2023-03-24T08:50:57;8.68;;;3.95;;
15114;SDS011;7658;51.456;7.622;2023-03-24T08:53:22;8.63;;;3.85;;
15114;SDS011;7658;51.456;7.622;2023-03-24T08:55:48;10.23;;;4.25;;
15114;SDS011;7658;51.456;7.622;2023-03-24T08:58:15;6.55;;;3.58;;
15114;SDS011;7658;51.456;7.622;2023-03-24T09:00:43;10.45;;;4.22;;
15114;SDS011;7658;51.456;7.622;2023-03-24T09:03:14;10.18;;;3.83;;
15114;SDS011;7658;51.456;7.622;2023-03-24T09:05:43;5.50;;;3.90;;
15114;SDS011;7658;51.456;7.622;2023-03-24T09:08:11;10.55;;;5.15;;
15114;SDS011;7658;51.456;7.622;2023-03-24T09:10:39;7.85;;;4.45;;
15114;SDS011;7658;51.456;7.622;2023-03-24T09:13:06;8.48;;;4.50;;
15114;SDS011;7658;51.456;7.622;2023-03-24T09:15:32;8.25;;;4.10;;
15114;SDS011;7658;51.456;7.622;2023-03-24T09:17:58;9.68;;;4.63;;
15114;SDS011;7658;51.456;7.622;2023-03-24T09:20:24;10.85;;;4.55;;
15114;SDS011;7658;51.456;7.622;2023-03-24T09:22:51;11.13;;;4.65;;
15114;SDS011;7658;51.456;7.622;2023-03-24T09:25:19;8.52;;;4.22;;
15114;SDS011;7658;51.456;7.622;2023-03-24T09:27:48;9.65;;;4.53;;
15114;SDS011;7658;51.456;7.622;2023-03-24T09:30:16;8.65;;;4.70;;
15114;SDS011;7658;51.456;7.622;2023-03-24T09:32:47;11.32;;;4.25;;
15114;SDS011;7658;51.456;7.622;2023-03-24T09:35:13;12.23;;;4.53;;
15114;SDS011;7658;51.456;7.622;2023-03-24T09:37:40;10.10;;;4.75;;
15114;SDS011;7658;51.456;7.622;2023-03-24T09:40:09;13.63;;;4.53;;
15114;SDS011;7658;51.456;7.622;2023-03-24T09:42:48;8.82;;;4.68;;
15114;SDS011;7658;51.456;7.622;2023-03-24T09:45:46;12.95;;;4.47;;
15114;SDS011;7658;51.456;7.622;2023-03-24T09:51:08;11.10;;;4.88;;
15114;SDS011;7658;51.456;7.622;2023-03-24T09:56:51;12.07;;;4.88;;
15114;SDS011;7658;51.456;7.622;2023-03-24T09:59:20;8.45;;;4.72;;
15114;SDS011;7658;51.456;7.622;2023-03-24T10:02:15;10.35;;;4.95;;
15114;SDS011;7658;51.456;7.622;2023-03-24T10:04:44;10.48;;;4.05;;
15114;SDS011;7658;51.456;7.622;2023-03-24T10:09:57;11.10;;;5.05;;
15114;SDS011;7658;51.456;7.622;2023-03-24T10:12:48;12.23;;;4.47;;
15114;SDS011;7658;51.456;7.622;2023-03-24T10:15:22;10.77;;;4.85;;
15114;SDS011;7658;51.456;7.622;2023-03-24T10:20:52;10.57;;;4.57;;
15114;SDS011;7658;51.456;7.622;2023-03-24T10:23:30;13.25;;;4.75;;
15114;SDS011;7658;51.456;7.622;2023-03-24T10:26:11;6.10;;;4.05;;
15114;SDS011;7658;51.456;7.622;2023-03-24T10:28:42;9.25;;;3.90;;
15114;SDS011;7658;51.456;7.622;2023-03-24T10:31:14;13.23;;;4.28;;
15114;SDS011;7658;51.456;7.622;2023-03-24T10:33:42;9.48;;;4.20;;
15114;SDS011;7658;51.456;7.622;2023-03-24T10:36:13;6.95;;;3.70;;
15114;SDS011;7658;51.456;7.622;2023-03-24T10:38:42;9.27;;;3.90;;
15114;SDS011;7658;51.456;7.622;2023-03-24T10:41:18;9.77;;;4.10;;
15114;SDS011;7658;51.456;7.622;2023-03-24T10:43:49;7.65;;;3.80;;
15114;SDS011;7658;51.456;7.622;2023-03-24T10:46:18;13.23;;;4.43;;
15114;SDS011;7658;51.456;7.622;2023-03-24T10:48:50;17.05;;;4.65;;
15114;SDS011;7658;51.456;7.622;2023-03-24T10:51:23;12.38;;;4.05;;
15114;SDS011;7658;51.456;7.622;2023-03-24T10:54:08;10.05;;;3.50;;
15114;SDS011;7658;51.456;7.622;2023-03-24T10:56:45;8.65;;;3.78;;
15114;SDS011;7658;51.456;7.622;2023-03-24T10:59:33;8.73;;;3.65;;
15114;SDS011;7658;51.456;7.622;2023-03-24T11:04:40;10.20;;;3.90;;
15114;SDS011;7658;51.456;7.622;2023-03-24T11:07:16;9.57;;;3.92;;
15114;SDS011;7658;51.456;7.622;2023-03-24T11:09:59;9.55;;;4.05;;
15114;SDS011;7658;51.456;7.622;2023-03-24T11:12:28;11.43;;;4.05;;
15114;SDS011;7658;51.456;7.622;2023-03-24T11:17:51;10.93;;;4.32;;
15114;SDS011;7658;51.456;7.622;2023-03-24T11:20:31;8.85;;;3.97;;
15114;SDS011;7658;51.456;7.622;2023-03-24T11:23:20;8.90;;;4.05;;
15114;SDS011;7658;51.456;7.622;2023-03-24T11:28:38;11.15;;;4.45;;
15114;SDS011;7658;51.456;7.622;2023-03-24T11:31:08;8.07;;;4.03;;
15114;SDS011;7658;51.456;7.622;2023-03-24T11:33:43;9.73;;;4.30;;
15114;SDS011;7658;51.456;7.622;2023-03-24T11:39:02;11.20;;;4.47;;
15114;SDS011;7658;51.456;7.622;2023-03-24T11:41:31;12.68;;;4.72;;
15114;SDS011;7658;51.456;7.622;2023-03-24T11:46:46;12.13;;;4.50;;
15114;SDS011;7658;51.456;7.622;2023-03-24T11:49:15;10.07;;;3.80;;
15114;SDS011;7658;51.456;7.622;2023-03-24T11:51:45;11.55;;;4.57;;
15114;SDS011;7658;51.456;7.622;2023-03-24T11:54:14;6.43;;;3.70;;
15114;SDS011;7658;51.456;7.622;2023-03-24T11:56:46;7.78;;;3.95;;
15114;SDS011;7658;51.456;7.622;2023-03-24T12:04:35;8.65;;;3.83;;
15114;SDS011;7658;51.456;7.622;2023-03-24T12:15:21;7.88;;;3.88;;
15114;SDS011;7658;51.456;7.622;2023-03-24T12:20:48;8.70;;;3.80;;
15114;SDS011;7658;51.456;7.622;2023-03-24T12:23:41;10.82;;;4.10;;
15114;SDS011;7658;51.456;7.622;2023-03-24T12:26:24;7.22;;;3.60;;
15114;SDS011;7658;51.456;7.622;2023-03-24T12:42:44;6.70;;;3.33;;
15114;SDS011;7658;51.456;7.622;2023-03-24T12:48:06;6.95;;;3.50;;
15114;SDS011;7658;51.456;7.622;2023-03-24T12:51:01;8.95;;;3.80;;
15114;SDS011;7658;51.456;7.622;2023-03-24T12:56:43;9.90;;;3.80;;
15114;SDS011;7658;51.456;7.622;2023-03-24T13:04:41;6.80;;;3.33;;
15114;SDS011;7658;51.456;7.622;2023-03-24T13:07:10;10.60;;;3.70;;
15114;SDS011;7658;51.456;7.622;2023-03-24T13:12:28;5.65;;;3.58;;
15114;SDS011;7658;51.456;7.622;2023-03-24T13:28:56;6.72;;;3.50;;
15114;SDS011;7658;51.456;7.622;2023-03-24T13:31:48;6.20;;;3.65;;
15114;SDS011;7658;51.456;7.622;2023-03-24T13:34:36;6.43;;;3.35;;
15114;SDS011;7658;51.456;7.622;2023-03-24T13:37:11;7.47;;;3.70;;
15114;SDS011;7658;51.456;7.622;2023-03-24T13:39:42;11.23;;;3.72;;
15114;SDS011;7658;51.456;7.622;2023-03-24T13:44:55;6.30;;;3.25;;
15114;SDS011;7658;51.456;7.622;2023-03-24T13:47:49;7.75;;;3.58;;
15114;SDS011;7658;51.456;7.622;2023-03-24T13:50:18;9.25;;;3.38;;
15114;SDS011;7658;51.456;7.622;2023-03-24T13:52:44;7.22;;;3.08;;
15114;SDS011;7658;51.456;7.622;2023-03-24T13:55:14;7.38;;;3.20;;
15114;SDS011;7658;51.456;7.622;2023-03-24T13:58:15;10.65;;;3.33;;
15114;SDS011;7658;51.456;7.622;2023-03-24T14:01:04;7.00;;;3.33;;
15114;SDS011;7658;51.456;7.622;2023-03-24T14:03:39;9.02;;;3.47;;
15114;SDS011;7658;51.456;7.622;2023-03-24T14:06:07;9.52;;;3.40;;
15114;SDS011;7658;51.456;7.622;2023-03-24T14:08:39;9.02;;;3.25;;
15114;SDS011;7658;51.456;7.622;2023-03-24T14:13:55;6.03;;;3.30;;
15114;SDS011;7658;51.456;7.622;2023-03-24T14:22:22;7.90;;;2.92;;
15114;SDS011;7658;51.456;7.622;2023-03-24T14:30:35;7.35;;;3.67;;
15114;SDS011;7658;51.456;7.622;2023-03-24T14:33:04;7.22;;;3.45;;
15114;SDS011;7658;51.456;7.622;2023-03-24T14:35:46;7.28;;;3.47;;
15114;SDS011;7658;51.456;7.622;2023-03-24T14:40:40;9.88;;;3.40;;
15114;SDS011;7658;51.456;7.622;2023-03-24T14:43:26;7.50;;;3.45;;
15114;SDS011;7658;51.456;7.622;2023-03-24T14:46:47;9.60;;;3.22;;
15114;SDS011;7658;51.456;7.622;2023-03-24T14:49:03;5.78;;;3.00;;
15114;SDS011;7658;51.456;7.622;2023-03-24T14:57:18;7.18;;;2.60;;
15114;SDS011;7658;51.456;7.622;2023-03-24T14:59:57;2.95;;;2.70;;
15114;SDS011;7658;51.456;7.622;2023-03-24T15:02:39;7.40;;;2.90;;
15114;SDS011;7658;51.456;7.622;2023-03-24T15:05:21;2.92;;;2.60;;
15114;SDS011;7658;51.456;7.622;2023-03-24T15:08:29;3.10;;;2.55;;
15114;SDS011;7658;51.456;7.622;2023-03-24T15:11:06;3.47;;;2.50;;
15114;SDS011;7658;51.456;7.622;2023-03-24T15:13:41;3.40;;;2.95;;
15114;SDS011;7658;51.456;7.622;2023-03-24T15:18:35;3.03;;;2.65;;
15114;SDS011;7658;51.456;7.622;2023-03-24T15:21:26;4.32;;;2.50;;
15114;SDS011;7658;51.456;7.622;2023-03-24T15:23:57;6.57;;;2.60;;
15114;SDS011;7658;51.456;7.622;2023-03-24T15:26:26;4.00;;;2.60;;
15114;SDS011;7658;51.456;7.622;2023-03-24T15:28:54;3.42;;;2.88;;
15114;SDS011;7658;51.456;7.622;2023-03-24T15:31:24;5.82;;;2.70;;
15114;SDS011;7658;51.456;7.622;2023-03-24T15:33:54;6.30;;;2.85;;
15114;SDS011;7658;51.456;7.622;2023-03-24T15:36:53;7.35;;;3.00;;
15114;SDS011;7658;51.456;7.622;2023-03-24T15:39:21;7.45;;;2.70;;
15114;SDS011;7658;51.456;7.622;2023-03-24T15:41:53;7.88;;;3.40;;
15114;SDS011;7658;51.456;7.622;2023-03-24T15:44:20;8.30;;;3.30;;
15114;SDS011;7658;51.456;7.622;2023-03-24T15:46:55;5.30;;;2.65;;
15114;SDS011;7658;51.456;7.622;2023-03-24T15:49:25;4.60;;;3.00;;
15114;SDS011;7658;51.456;7.622;2023-03-24T15:51:57;4.75;;;2.60;;
15114;SDS011;7658;51.456;7.622;2023-03-24T15:54:25;8.30;;;3.22;;
15114;SDS011;7658;51.456;7.622;2023-03-24T15:57:00;5.63;;;3.05;;
15114;SDS011;7658;51.456;7.622;2023-03-24T15:59:33;7.57;;;3.10;;
15114;SDS011;7658;51.456;7.622;2023-03-24T16:02:03;5.60;;;3.30;;
15114;SDS011;7658;51.456;7.622;2023-03-24T16:04:35;3.22;;;2.70;;
15114;SDS011;7658;51.456;7.622;2023-03-24T16:07:02;8.40;;;2.90;;
15114;SDS011;7658;51.456;7.622;2023-03-24T16:09:37;8.88;;;2.92;;
15114;SDS011;7658;51.456;7.622;2023-03-24T16:12:08;4.82;;;2.83;;
15114;SDS011;7658;51.456;7.622;2023-03-24T16:14:36;7.55;;;3.17;;
15114;SDS011;7658;51.456;7.622;2023-03-24T16:17:02;4.18;;;2.80;;
15114;SDS011;7658;51.456;7.622;2023-03-24T16:19:28;3.10;;;2.80;;
15114;SDS011;7658;51.456;7.622;2023-03-24T16:21:54;3.42;;;2.90;;
15114;SDS011;7658;51.456;7.622;2023-03-24T16:24:22;3.70;;;3.08;;
15114;SDS011;7658;51.456;7.622;2023-03-24T16:26:52;7.53;;;3.17;;
15114;SDS011;7658;51.456;7.622;2023-03-24T16:29:18;6.45;;;3.10;;
15114;SDS011;7658;51.456;7.622;2023-03-24T16:31:47;9.15;;;3.20;;
15114;SDS011;7658;51.456;7.622;2023-03-24T16:34:15;4.65;;;2.90;;
15114;SDS011;7658;51.456;7.622;2023-03-24T16:36:45;6.57;;;3.60;;
15114;SDS011;7658;51.456;7.622;2023-03-24T16:39:17;8.93;;;3.83;;
15114;SDS011;7658;51.456;7.622;2023-03-24T16:41:44;6.05;;;3.70;;
15114;SDS011;7658;51.456;7.622;2023-03-24T16:44:10;5.17;;;3.30;;
15114;SDS011;7658;51.456;7.622;2023-03-24T16:46:37;9.97;;;3.40;;
15114;SDS011;7658;51.456;7.622;2023-03-24T16:49:08;7.37;;;3.53;;
15114;SDS011;7658;51.456;7.622;2023-03-24T16:51:41;4.97;;;3.10;;
15114;SDS011;7658;51.456;7.622;2023-03-24T16:54:07;5.03;;;3.47;;
15114;SDS011;7658;51.456;7.622;2023-03-24T16:56:33;6.40;;;3.60;;
15114;SDS011;7658;51.456;7.622;2023-03-24T16:59:00;3.97;;;3.10;;
15114;SDS011;7658;51.456;7.622;2023-03-24T17:01:30;4.73;;;3.20;;
15114;SDS011;7658;51.456;7.622;2023-03-24T17:04:12;3.70;;;3.03;;
15114;SDS011;7658;51.456;7.622;2023-03-24T17:06:41;2.83;;;2.63;;
15114;SDS011;7658;51.456;7.622;2023-03-24T17:09:09;6.53;;;2.97;;
15114;SDS011;7658;51.456;7.622;2023-03-24T17:11:37;5.43;;;2.80;;
15114;SDS011;7658;51.456;7.622;2023-03-24T17:14:06;2.90;;;2.70;;
15114;SDS011;7658;51.456;7.622;2023-03-24T17:16:37;5.75;;;3.05;;
15114;SDS011;7658;51.456;7.622;2023-03-24T17:19:08;3.97;;;3.08;;
15114;SDS011;7658;51.456;7.622;2023-03-24T17:21:59;2.97;;;2.60;;
15114;SDS011;7658;51.456;7.622;2023-03-24T17:24:27;5.80;;;3.43;;
15114;SDS011;7658;51.456;7.622;2023-03-24T17:26:59;6.43;;;3.40;;
15114;SDS011;7658;51.456;7.622;2023-03-24T17:29:25;3.43;;;3.13;;
15114;SDS011;7658;51.456;7.622;2023-03-24T17:31:52;4.13;;;2.88;;
15114;SDS011;7658;51.456;7.622;2023-03-24T17:34:18;10.27;;;6.30;;
15114;SDS011;7658;51.456;7.622;2023-03-24T17:36:45;11.37;;;6.20;;
15114;SDS011;7658;51.456;7.622;2023-03-24T17:39:16;5.22;;;4.72;;
15114;SDS011;7658;51.456;7.622;2023-03-24T17:41:43;4.53;;;4.05;;
15114;SDS011;7658;51.456;7.622;2023-03-24T17:44:09;4.28;;;3.30;;
15114;SDS011;7658;51.456;7.622;2023-03-24T17:46:35;4.03;;;3.67;;
15114;SDS011;7658;51.456;7.622;2023-03-24T17:49:01;3.90;;;3.57;;
15114;SDS011;7658;51.456;7.622;2023-03-24T17:51:28;3.70;;;3.40;;
15114;SDS011;7658;51.456;7.622;2023-03-24T17:53:53;8.53;;;4.00;;
15114;SDS011;7658;51.456;7.622;2023-03-24T17:56:19;3.00;;;2.80;;
15114;SDS011;7658;51.456;7.622;2023-03-24T17:58:45;3.20;;;3.00;;
15114;SDS011;7658;51.456;7.622;2023-03-24T18:01:11;3.67;;;2.93;;
15114;SDS011;7658;51.456;7.622;2023-03-24T18:03:42;2.93;;;2.73;;
15114;SDS011;7658;51.456;7.622;2023-03-24T18:06:08;3.05;;;2.70;;
15114;SDS011;7658;51.456;7.622;2023-03-24T18:08:36;3.15;;;2.95;;
15114;SDS011;7658;51.456;7.622;2023-03-24T18:11:07;3.00;;;2.80;;
15114;SDS011;7658;51.456;7.622;2023-03-24T18:13:35;3.40;;;3.10;;
15114;SDS011;7658;51.456;7.622;2023-03-24T18:16:02;3.13;;;2.90;;
15114;SDS011;7658;51.456;7.622;2023-03-24T18:18:32;2.90;;;2.70;;